createdAt,value
2023-03-18T00:02:03.200Z,8.67
2023-03-18T00:04:30.645Z,10.10
2023-03-18T00:06:58.826Z,10.03
2023-03-18T00:09:26.590Z,11.10
2023-03-18T00:11:56.609Z,10.03
2023-03-18T00:14:23.797Z,8.30
2023-03-18T00:16:50.805Z,9.60
2023-03-18T00:19:18.668Z,9.77
2023-03-18T00:21:45.853Z,9.80
2023-03-18T00:24:12.827Z,9.00
2023-03-18T00:26:39.813Z,7.60
2023-03-18T00:29:07.818Z,9.70
2023-03-18T00:31:34.807Z,9.60
2023-03-18T00:34:02.186Z,9.60
2023-03-18T00:36:30.502Z,7.87
2023-03-18T00:38:59.618Z,11.13
2023-03-18T00:41:33.019Z,11.50
2023-03-18T00:44:00.286Z,10.30
2023-03-18T00:46:33.209Z,15.47
2023-03-18T00:49:05.188Z,9.90
2023-03-18T00:51:35.236Z,9.70
2023-03-18T00:54:06.628Z,10.67
2023-03-18T00:56:35.978Z,13.87
2023-03-18T00:59:04.308Z,9.13
2023-03-18T01:01:32.138Z,9.93
2023-03-18T01:04:00.347Z,11.23
2023-03-18T01:06:32.792Z,10.73
2023-03-18T01:09:01.455Z,11.13
2023-03-18T01:11:29.864Z,9.20
2023-03-18T01:13:57.824Z,12.83
2023-03-18T01:16:24.820Z,11.77
2023-03-18T01:18:52.425Z,11.93
2023-03-18T01:21:19.565Z,15.17
2023-03-18T01:23:52.056Z,15.93
2023-03-18T01:26:19.813Z,12.17
2023-03-18T01:28:48.045Z,10.00
2023-03-18T01:31:15.498Z,12.40
2023-03-18T01:33:45.080Z,14.10
2023-03-18T01:36:12.581Z,15.07
2023-03-18T01:38:40.744Z,13.80
2023-03-18T01:41:11.932Z,12.70
2023-03-18T01:43:42.763Z,13.43
2023-03-18T01:46:39.033Z,11.57
2023-03-18T01:49:12.685Z,10.27
2023-03-18T01:51:43.703Z,9.63
2023-03-18T01:54:12.418Z,10.90
2023-03-18T01:56:41.434Z,10.43
2023-03-18T01:59:10.557Z,10.90
2023-03-18T02:02:09.288Z,12.27
2023-03-18T02:04:41.317Z,15.17
2023-03-18T02:07:29.818Z,12.13
2023-03-18T02:10:00.214Z,10.50
2023-03-18T02:12:41.393Z,11.40
2023-03-18T02:15:13.492Z,11.70
2023-03-18T02:17:45.238Z,11.07
2023-03-18T02:20:19.088Z,15.17
2023-03-18T02:23:13.426Z,13.23
2023-03-18T02:25:53.913Z,10.50
2023-03-18T02:28:28.071Z,12.83
2023-03-18T02:30:59.426Z,11.50
2023-03-18T02:33:40.429Z,13.27
2023-03-18T02:36:24.550Z,18.00
2023-03-18T02:38:52.892Z,12.43
2023-03-18T02:41:32.452Z,13.23
2023-03-18T02:44:00.260Z,19.30
2023-03-18T02:46:41.300Z,12.07
2023-03-18T02:49:10.412Z,16.13
2023-03-18T02:51:38.383Z,19.10
2023-03-18T02:54:10.592Z,14.53
2023-03-18T02:56:38.531Z,13.03
2023-03-18T02:59:06.017Z,11.93
2023-03-18T03:01:34.487Z,16.63
2023-03-18T03:04:02.665Z,18.33
2023-03-18T03:06:29.882Z,17.80
2023-03-18T03:08:57.488Z,15.37
2023-03-18T03:11:25.781Z,14.07
2023-03-18T03:13:56.073Z,13.20
2023-03-18T03:16:23.180Z,16.10
2023-03-18T03:18:50.676Z,16.20
2023-03-18T03:21:17.763Z,15.80
2023-03-18T03:23:46.171Z,13.67
2023-03-18T03:26:15.878Z,12.30
2023-03-18T03:28:43.340Z,14.57
2023-03-18T03:31:10.909Z,14.47
2023-03-18T03:33:41.872Z,15.40
2023-03-18T03:36:14.677Z,14.47
2023-03-18T03:38:41.723Z,14.20
2023-03-18T03:41:12.399Z,13.80
2023-03-18T03:43:41.600Z,15.73
2023-03-18T03:46:09.567Z,14.87
2023-03-18T03:48:39.446Z,20.10
2023-03-18T03:51:11.331Z,14.50
2023-03-18T03:53:38.472Z,17.43
2023-03-18T03:56:09.111Z,14.03
2023-03-18T03:58:36.338Z,13.87
2023-03-18T04:01:06.482Z,13.27
2023-03-18T04:03:34.071Z,21.50
2023-03-18T04:06:01.884Z,15.97
2023-03-18T04:08:31.737Z,12.20
2023-03-18T04:10:59.366Z,12.83
2023-03-18T04:13:26.532Z,14.43
2023-03-18T04:15:54.861Z,17.40
2023-03-18T04:18:21.955Z,17.17
2023-03-18T04:20:49.014Z,17.60
2023-03-18T04:23:28.929Z,19.10
2023-03-18T04:25:56.972Z,16.00
2023-03-18T04:28:24.219Z,16.70
2023-03-18T04:30:51.706Z,19.90
2023-03-18T04:33:19.598Z,19.93
2023-03-18T04:35:48.628Z,21.53
2023-03-18T04:38:18.014Z,15.80
2023-03-18T04:40:45.804Z,18.20
2023-03-18T04:43:12.957Z,19.90
2023-03-18T04:45:40.023Z,21.47
2023-03-18T04:48:07.249Z,17.67
2023-03-18T04:50:39.813Z,19.03
2023-03-18T04:53:10.062Z,14.97
2023-03-18T04:55:38.285Z,13.93
2023-03-18T04:58:08.398Z,16.37
2023-03-18T05:00:40.530Z,15.70
2023-03-18T05:03:28.377Z,16.10
2023-03-18T05:05:55.695Z,18.40
2023-03-18T05:08:29.549Z,15.47
2023-03-18T05:10:56.679Z,17.57
2023-03-18T05:13:24.128Z,18.00
2023-03-18T05:15:52.628Z,13.20
2023-03-18T05:18:19.555Z,13.10
2023-03-18T05:20:49.296Z,14.30
2023-03-18T05:23:18.158Z,15.40
2023-03-18T05:25:51.519Z,12.67
2023-03-18T05:28:21.518Z,16.20
2023-03-18T05:31:15.370Z,14.67
2023-03-18T05:33:44.010Z,16.10
2023-03-18T05:36:13.814Z,15.33
2023-03-18T05:38:52.613Z,12.43
2023-03-18T05:41:20.413Z,15.47
2023-03-18T05:43:47.670Z,13.03
2023-03-18T05:46:15.646Z,11.60
2023-03-18T05:49:01.045Z,14.90
2023-03-18T05:51:33.172Z,13.67
2023-03-18T05:54:01.486Z,13.53
2023-03-18T05:56:33.704Z,22.87
2023-03-18T05:59:06.018Z,16.47
2023-03-18T06:01:42.402Z,14.90
2023-03-18T06:04:10.242Z,15.07
2023-03-18T06:06:40.432Z,14.27
2023-03-18T06:09:09.088Z,17.80
2023-03-18T06:11:37.093Z,20.17
2023-03-18T06:14:05.598Z,17.53
2023-03-18T06:16:33.931Z,18.30
2023-03-18T06:19:02.554Z,20.83
2023-03-18T06:21:31.611Z,17.20
2023-03-18T06:23:58.808Z,19.67
2023-03-18T06:26:26.952Z,17.77
2023-03-18T06:28:55.064Z,22.20
2023-03-18T06:31:26.214Z,20.43
2023-03-18T06:33:53.493Z,27.23
2023-03-18T06:36:22.534Z,20.37
2023-03-18T06:38:52.124Z,18.47
2023-03-18T06:41:19.748Z,20.03
2023-03-18T06:44:04.140Z,24.93
2023-03-18T06:46:31.955Z,24.47
2023-03-18T06:49:01.965Z,22.17
2023-03-18T06:51:34.424Z,26.20
2023-03-18T06:54:02.114Z,22.20
2023-03-18T06:56:34.296Z,22.70
2023-03-18T06:59:10.861Z,20.27
2023-03-18T07:01:38.811Z,21.10
2023-03-18T07:04:07.006Z,17.03
2023-03-18T07:06:35.078Z,20.10
2023-03-18T07:09:02.032Z,24.77
2023-03-18T07:11:31.300Z,19.57
2023-03-18T07:14:02.735Z,19.00
2023-03-18T07:16:35.684Z,16.47
2023-03-18T07:19:04.202Z,17.93
2023-03-18T07:21:31.969Z,18.07
2023-03-18T07:23:59.217Z,16.47
2023-03-18T07:26:26.480Z,17.73
2023-03-18T07:28:53.559Z,15.53
2023-03-18T07:31:20.542Z,19.17
2023-03-18T07:33:47.667Z,14.63
2023-03-18T07:36:16.010Z,15.37
2023-03-18T07:38:43.285Z,18.33
2023-03-18T07:41:10.172Z,19.23
2023-03-18T07:43:37.519Z,18.27
2023-03-18T07:46:04.868Z,20.13
2023-03-18T07:48:34.214Z,12.73
2023-03-18T07:51:02.954Z,21.70
2023-03-18T07:53:30.131Z,22.27
2023-03-18T07:55:57.209Z,16.23
2023-03-18T07:58:24.648Z,17.77
2023-03-18T08:00:53.083Z,22.53
2023-03-18T08:03:20.174Z,21.73
2023-03-18T08:05:47.152Z,18.77
2023-03-18T08:08:14.268Z,15.97
2023-03-18T08:10:41.274Z,21.53
2023-03-18T08:13:08.396Z,23.00
2023-03-18T08:15:35.544Z,19.47
2023-03-18T08:18:02.769Z,18.27
2023-03-18T08:20:29.708Z,18.83
2023-03-18T08:22:57.170Z,15.33
2023-03-18T08:25:24.346Z,20.27
2023-03-18T08:27:52.418Z,18.30
2023-03-18T08:30:19.604Z,23.23
2023-03-18T08:32:47.155Z,15.87
2023-03-18T08:35:14.298Z,17.60
2023-03-18T08:37:41.411Z,16.10
2023-03-18T08:40:09.995Z,20.40
2023-03-18T08:42:37.142Z,19.57
2023-03-18T08:45:04.882Z,17.17
2023-03-18T08:47:32.538Z,16.03
2023-03-18T08:49:59.468Z,15.30
2023-03-18T08:52:26.530Z,17.27
2023-03-18T08:54:53.435Z,17.43
2023-03-18T08:57:20.767Z,21.83
2023-03-18T08:59:47.640Z,19.03
2023-03-18T09:02:18.489Z,19.63
2023-03-18T09:04:46.004Z,20.00
2023-03-18T09:07:13.233Z,15.43
2023-03-18T09:09:43.888Z,15.13
2023-03-18T09:12:12.593Z,16.60
2023-03-18T09:14:40.508Z,34.13
2023-03-18T09:17:08.027Z,14.93
2023-03-18T09:19:35.265Z,40.77
2023-03-18T09:22:02.250Z,23.93
2023-03-18T09:24:29.216Z,16.57
2023-03-18T09:26:56.203Z,15.83
2023-03-18T09:29:23.880Z,18.90
2023-03-18T09:31:50.982Z,13.17
2023-03-18T09:34:17.878Z,10.13
2023-03-18T09:36:51.042Z,14.73
2023-03-18T09:39:19.577Z,11.90
2023-03-18T09:42:13.321Z,12.57
2023-03-18T09:44:40.634Z,12.30
2023-03-18T09:47:45.669Z,13.93
2023-03-18T09:50:41.424Z,10.90
2023-03-18T09:53:24.052Z,10.87
2023-03-18T09:55:56.222Z,8.70
2023-03-18T09:58:28.484Z,13.90
2023-03-18T10:01:04.909Z,10.90
2023-03-18T10:03:38.223Z,10.77
2023-03-18T10:06:19.721Z,13.07
2023-03-18T10:08:52.862Z,10.67
2023-03-18T10:11:41.779Z,16.23
2023-03-18T10:14:36.081Z,12.87
2023-03-18T10:17:17.024Z,10.47
2023-03-18T10:19:59.270Z,17.07
2023-03-18T10:22:26.175Z,12.37
2023-03-18T10:25:20.818Z,14.20
2023-03-18T10:28:27.435Z,12.40
2023-03-18T10:31:11.358Z,12.07
2023-03-18T10:34:02.013Z,11.50
2023-03-18T10:36:59.941Z,13.67
2023-03-18T10:39:28.801Z,16.33
2023-03-18T10:41:58.431Z,19.20
2023-03-18T10:44:36.789Z,14.33
2023-03-18T10:47:15.690Z,13.57
2023-03-18T10:50:06.367Z,12.90
2023-03-18T10:53:02.379Z,13.00
2023-03-18T10:55:35.423Z,13.63
2023-03-18T10:58:15.954Z,14.57
2023-03-18T11:00:44.989Z,13.40
2023-03-18T11:03:43.964Z,11.57
2023-03-18T11:06:41.826Z,13.43
2023-03-18T11:09:15.693Z,11.23
2023-03-18T11:11:44.157Z,14.03
2023-03-18T11:14:22.795Z,12.50
2023-03-18T11:16:58.005Z,14.00
2023-03-18T11:19:32.330Z,13.07
2023-03-18T11:22:23.171Z,12.43
2023-03-18T11:25:12.132Z,13.37
2023-03-18T11:27:43.791Z,13.03
2023-03-18T11:30:36.329Z,13.83
2023-03-18T11:33:11.826Z,11.10
2023-03-18T11:35:53.203Z,10.60
2023-03-18T11:38:34.995Z,10.97
2023-03-18T11:41:13.231Z,13.30
2023-03-18T11:44:02.110Z,9.67
2023-03-18T11:46:36.199Z,11.33
2023-03-18T11:49:04.132Z,10.13
2023-03-18T11:52:08.338Z,10.83
2023-03-18T11:55:04.067Z,13.00
2023-03-18T11:57:52.671Z,11.03
2023-03-18T12:00:52.694Z,11.60
2023-03-18T12:03:38.406Z,8.23
2023-03-18T12:06:11.260Z,9.63
2023-03-18T12:08:48.036Z,8.83
2023-03-18T12:11:47.123Z,9.93
2023-03-18T12:14:20.036Z,11.30
2023-03-18T12:17:11.768Z,10.27
2023-03-18T12:20:00.054Z,11.40
2023-03-18T12:22:49.572Z,10.40
2023-03-18T12:25:35.087Z,9.23
2023-03-18T12:28:14.596Z,10.53
2023-03-18T12:30:56.512Z,8.97
2023-03-18T12:33:57.442Z,10.70
2023-03-18T12:36:46.272Z,8.67
2023-03-18T12:39:31.277Z,9.17
2023-03-18T12:42:03.989Z,10.50
2023-03-18T12:44:46.717Z,7.50
2023-03-18T12:47:18.167Z,9.00
2023-03-18T12:50:00.423Z,11.43
2023-03-18T12:52:44.370Z,11.50
2023-03-18T12:55:16.964Z,9.00
2023-03-18T12:58:04.337Z,9.03
2023-03-18T13:01:06.918Z,8.73
2023-03-18T13:03:37.867Z,9.10
2023-03-18T13:06:22.938Z,9.07
2023-03-18T13:09:04.817Z,9.20
2023-03-18T13:11:46.816Z,9.57
2023-03-18T13:14:41.205Z,11.17
2023-03-18T13:17:15.120Z,9.43
2023-03-18T13:19:43.420Z,8.00
2023-03-18T13:22:29.075Z,10.27
2023-03-18T13:25:15.706Z,11.93
2023-03-18T13:28:20.403Z,9.30
2023-03-18T13:31:20.240Z,9.17
2023-03-18T13:34:06.077Z,8.97
2023-03-18T13:36:54.648Z,8.83
2023-03-18T13:39:27.596Z,10.53
2023-03-18T13:42:17.942Z,9.53
2023-03-18T13:44:55.316Z,7.90
2023-03-18T13:47:23.709Z,10.17
2023-03-18T13:50:00.520Z,12.50
2023-03-18T13:52:43.038Z,12.73
2023-03-18T13:55:25.293Z,10.03
2023-03-18T13:58:04.963Z,10.67
2023-03-18T14:00:54.746Z,11.00
2023-03-18T14:03:51.152Z,12.63
2023-03-18T14:06:36.837Z,9.07
2023-03-18T14:09:22.963Z,10.93
2023-03-18T14:11:52.934Z,11.13
2023-03-18T14:14:51.342Z,9.53
2023-03-18T14:17:41.924Z,13.80
2023-03-18T14:20:17.780Z,9.23
2023-03-18T14:22:52.956Z,12.40
2023-03-18T14:25:25.226Z,10.73
2023-03-18T14:28:13.421Z,10.70
2023-03-18T14:30:44.136Z,8.20
2023-03-18T14:33:20.222Z,11.83
2023-03-18T14:35:58.274Z,7.90
2023-03-18T14:38:31.489Z,9.73
2023-03-18T14:41:00.401Z,8.83
2023-03-18T14:43:39.218Z,12.77
2023-03-18T14:46:17.608Z,9.00
2023-03-18T14:48:46.134Z,8.63
2023-03-18T14:51:22.112Z,9.57
2023-03-18T14:54:14.495Z,9.67
2023-03-18T14:56:42.531Z,8.03
2023-03-18T14:59:15.844Z,7.90
2023-03-18T15:01:48.049Z,10.47
2023-03-18T15:04:19.573Z,8.13
2023-03-18T15:06:46.796Z,8.33
2023-03-18T15:09:27.620Z,9.60
2023-03-18T15:11:54.803Z,9.57
2023-03-18T15:14:27.843Z,8.43
2023-03-18T15:17:12.342Z,6.97
2023-03-18T15:19:39.435Z,7.67
2023-03-18T15:22:07.500Z,7.00
2023-03-18T15:24:35.132Z,9.17
2023-03-18T15:27:13.540Z,9.67
2023-03-18T15:29:53.384Z,11.50
2023-03-18T15:32:28.528Z,9.17
2023-03-18T15:35:14.088Z,8.07
2023-03-18T15:37:43.968Z,10.47
2023-03-18T15:40:32.961Z,7.47
2023-03-18T15:43:27.600Z,11.03
2023-03-18T15:46:05.226Z,11.80
2023-03-18T15:48:47.897Z,9.13
2023-03-18T15:51:26.922Z,6.53
2023-03-18T15:53:58.156Z,7.70
2023-03-18T15:56:31.447Z,7.10
2023-03-18T15:59:18.751Z,8.47
2023-03-18T16:01:47.286Z,10.93
2023-03-18T16:04:17.436Z,9.23
2023-03-18T16:06:45.037Z,8.93
2023-03-18T16:09:22.190Z,7.23
2023-03-18T16:12:25.191Z,10.13
2023-03-18T16:14:54.225Z,10.27
2023-03-18T16:17:22.205Z,9.53
2023-03-18T16:19:54.250Z,11.87
2023-03-18T16:22:22.143Z,9.00
2023-03-18T16:24:49.631Z,9.90
2023-03-18T16:27:35.262Z,10.83
2023-03-18T16:30:02.475Z,8.33
2023-03-18T16:32:29.613Z,9.37
2023-03-18T16:34:56.696Z,9.50
2023-03-18T16:37:26.704Z,12.23
2023-03-18T16:39:55.807Z,12.63
2023-03-18T16:42:24.026Z,15.40
2023-03-18T16:44:52.023Z,10.60
2023-03-18T16:47:25.249Z,10.07
2023-03-18T16:49:52.552Z,10.73
2023-03-18T16:52:19.659Z,10.87
2023-03-18T16:54:46.872Z,9.50
2023-03-18T16:57:20.058Z,11.37
2023-03-18T16:59:50.942Z,10.97
2023-03-18T17:02:31.101Z,11.83
2023-03-18T17:04:58.711Z,11.93
2023-03-18T17:07:25.726Z,8.80
2023-03-18T17:09:53.466Z,12.00
2023-03-18T17:12:22.012Z,11.93
2023-03-18T17:14:58.945Z,12.67
2023-03-18T17:17:35.811Z,10.03
2023-03-18T17:20:05.009Z,10.83
2023-03-18T17:22:33.386Z,13.30
2023-03-18T17:25:02.736Z,11.40
2023-03-18T17:27:33.954Z,8.90
2023-03-18T17:30:01.492Z,15.60
2023-03-18T17:32:28.596Z,9.40
2023-03-18T17:34:56.269Z,10.83
2023-03-18T17:37:23.673Z,12.40
2023-03-18T17:39:50.741Z,13.27
2023-03-18T17:42:35.910Z,9.63
2023-03-18T17:45:22.536Z,9.17
2023-03-18T17:47:50.252Z,10.17
2023-03-18T17:50:18.637Z,12.63
2023-03-18T17:52:48.643Z,11.23
2023-03-18T17:55:22.673Z,11.37
2023-03-18T17:57:51.553Z,9.83
2023-03-18T18:00:25.047Z,13.40
2023-03-18T18:02:57.951Z,13.00
2023-03-18T18:05:25.035Z,14.00
2023-03-18T18:07:53.053Z,16.50
2023-03-18T18:10:20.822Z,8.90
2023-03-18T18:12:49.989Z,12.43
2023-03-18T18:15:27.619Z,15.53
2023-03-18T18:17:55.659Z,10.30
2023-03-18T18:20:22.744Z,11.43
2023-03-18T18:22:55.945Z,10.87
2023-03-18T18:25:26.908Z,9.77
2023-03-18T18:27:54.548Z,16.10
2023-03-18T18:30:23.826Z,12.03
2023-03-18T18:32:51.070Z,11.33
2023-03-18T18:35:21.240Z,10.73
2023-03-18T18:37:49.854Z,10.50
2023-03-18T18:40:18.101Z,9.87
2023-03-18T18:42:45.214Z,10.53
2023-03-18T18:45:18.192Z,11.70
2023-03-18T18:47:45.353Z,11.50
2023-03-18T18:50:24.221Z,10.50
2023-03-18T18:52:51.315Z,10.87
2023-03-18T18:55:18.486Z,10.23
2023-03-18T18:57:45.804Z,12.00
2023-03-18T19:00:21.981Z,9.90
2023-03-18T19:02:57.258Z,10.90
2023-03-18T19:05:24.450Z,10.17
2023-03-18T19:07:52.583Z,10.43
2023-03-18T19:10:19.700Z,12.93
2023-03-18T19:12:47.184Z,12.43
2023-03-18T19:15:15.698Z,12.80
2023-03-18T19:17:43.494Z,11.33
2023-03-18T19:20:26.808Z,10.37
2023-03-18T19:22:54.114Z,10.83
2023-03-18T19:25:21.015Z,13.03
2023-03-18T19:27:48.254Z,11.13
2023-03-18T19:30:23.438Z,10.10
2023-03-18T19:32:51.119Z,12.03
2023-03-18T19:35:18.108Z,11.07
2023-03-18T19:37:47.375Z,15.07
2023-03-18T19:40:20.421Z,11.63
2023-03-18T19:42:47.650Z,14.70
2023-03-18T19:45:14.829Z,15.27
2023-03-18T19:47:42.676Z,17.57
2023-03-18T19:50:17.977Z,12.87
2023-03-18T19:52:46.038Z,12.93
2023-03-18T19:55:15.245Z,11.37
2023-03-18T19:57:48.427Z,15.90
2023-03-18T20:00:21.988Z,12.60
2023-03-18T20:02:50.905Z,16.50
2023-03-18T20:05:23.634Z,16.83
2023-03-18T20:07:50.994Z,11.53
2023-03-18T20:10:19.520Z,12.57
2023-03-18T20:12:48.930Z,11.77
2023-03-18T20:15:21.730Z,15.00
2023-03-18T20:17:50.522Z,15.03
2023-03-18T20:20:20.378Z,14.93
2023-03-18T20:22:53.417Z,15.87
2023-03-18T20:25:24.259Z,15.53
2023-03-18T20:27:53.587Z,13.83
2023-03-18T20:30:32.309Z,15.23
2023-03-18T20:33:00.237Z,14.83
2023-03-18T20:35:29.894Z,15.50
2023-03-18T20:37:58.449Z,14.00
2023-03-18T20:40:28.269Z,16.57
2023-03-18T20:42:56.015Z,18.27
2023-03-18T20:45:24.319Z,11.73
2023-03-18T20:47:51.567Z,13.63
2023-03-18T20:50:22.728Z,16.33
2023-03-18T20:52:50.715Z,18.23
2023-03-18T20:55:31.297Z,16.83
2023-03-18T20:57:59.808Z,13.50
2023-03-18T21:00:30.159Z,17.73
2023-03-18T21:02:58.961Z,15.60
2023-03-18T21:05:26.793Z,15.00
2023-03-18T21:07:53.863Z,11.53
2023-03-18T21:10:26.377Z,14.17
2023-03-18T21:12:53.681Z,11.93
2023-03-18T21:15:24.314Z,14.80
2023-03-18T21:17:51.554Z,14.27
2023-03-18T21:20:22.816Z,12.97
2023-03-18T21:22:51.365Z,14.77
2023-03-18T21:25:26.836Z,13.77
2023-03-18T21:27:55.029Z,18.43
2023-03-18T21:30:22.860Z,15.57
2023-03-18T21:32:50.964Z,12.87
2023-03-18T21:35:21.736Z,14.37
2023-03-18T21:37:49.483Z,18.13
2023-03-18T21:40:22.001Z,14.93
2023-03-18T21:42:50.481Z,14.70
2023-03-18T21:45:20.704Z,18.60
2023-03-18T21:47:47.849Z,15.07
2023-03-18T21:50:23.930Z,18.27
2023-03-18T21:52:52.523Z,15.93
2023-03-18T21:55:20.796Z,12.30
2023-03-18T21:57:49.129Z,13.53
2023-03-18T22:00:19.966Z,13.67
2023-03-18T22:02:47.547Z,11.70
2023-03-18T22:05:20.835Z,14.73
2023-03-18T22:07:47.978Z,12.97
2023-03-18T22:10:17.754Z,17.77
2023-03-18T22:12:45.469Z,12.83
2023-03-18T22:15:24.354Z,15.53
2023-03-18T22:17:52.153Z,13.87
2023-03-18T22:20:19.246Z,14.13
2023-03-18T22:22:47.411Z,14.60
2023-03-18T22:25:32.953Z,13.77
2023-03-18T22:28:00.734Z,12.90
2023-03-18T22:30:29.627Z,19.70
2023-03-18T22:32:58.418Z,12.73
2023-03-18T22:35:28.034Z,14.10
2023-03-18T22:37:56.076Z,13.13
2023-03-18T22:40:27.233Z,14.90
2023-03-18T22:42:56.621Z,14.53
2023-03-18T22:45:32.192Z,13.73
2023-03-18T22:48:02.569Z,15.60
2023-03-18T22:50:34.791Z,11.60
2023-03-18T22:53:07.145Z,17.70
2023-03-18T22:55:39.877Z,14.63
2023-03-18T22:58:07.670Z,13.03
2023-03-18T23:00:38.080Z,15.03
2023-03-18T23:03:15.032Z,13.40
2023-03-18T23:05:42.092Z,16.27
2023-03-18T23:08:09.030Z,18.63
2023-03-18T23:10:36.742Z,15.07
2023-03-18T23:13:14.729Z,14.23
2023-03-18T23:15:42.314Z,16.60
2023-03-18T23:18:14.468Z,13.93
2023-03-18T23:20:43.437Z,19.70
2023-03-18T23:23:11.206Z,15.17
2023-03-18T23:25:39.493Z,17.07
2023-03-18T23:28:06.678Z,13.17
2023-03-18T23:30:35.824Z,13.80
2023-03-18T23:33:02.961Z,13.00
2023-03-18T23:35:30.066Z,15.33
2023-03-18T23:37:57.091Z,13.20
2023-03-18T23:40:24.830Z,18.03
2023-03-18T23:42:51.770Z,12.90
2023-03-18T23:45:19.148Z,13.90
2023-03-18T23:47:46.634Z,12.43
2023-03-18T23:50:13.585Z,22.97
2023-03-18T23:52:40.740Z,13.23
2023-03-18T23:55:21.374Z,15.43
2023-03-18T23:57:55.111Z,13.00
